sensor_id;sensor_type;location;lat;lon;timestamp;P1;durP1;ratioP1;P2;durP2;ratioP2
32469;SDS011;18925;48.356;10.864;2022-12-29T00:00:24;6.05;;;2.70;;
32469;SDS011;18925;48.356;10.864;2022-12-29T00:00:54;6.00;;;3.08;;
32469;SDS011;18925;48.356;10.864;2022-12-29T00:01:25;7.50;;;3.00;;
32469;SDS011;18925;48.356;10.864;2022-12-29T00:01:55;4.93;;;3.00;;
32469;SDS011;18925;48.356;10.864;2022-12-29T00:02:26;5.93;;;2.90;;
32469;SDS011;18925;48.356;10.864;2022-12-29T00:02:57;5.47;;;3.15;;
32469;SDS011;18925;48.356;10.864;2022-12-29T00:03:27;4.68;;;3.10;;
32469;SDS011;18925;48.356;10.864;2022-12-29T00:03:58;3.72;;;2.65;;
32469;SDS011;18925;48.356;10.864;2022-12-29T00:04:29;4.45;;;2.80;;
32469;SDS011;18925;48.356;10.864;2022-12-29T00:04:59;4.63;;;3.03;;
32469;SDS011;18925;48.356;10.864;2022-12-29T00:05:30;7.85;;;3.00;;
32469;SDS011;18925;48.356;10.864;2022-12-29T00:06:01;5.28;;;3.17;;
32469;SDS011;18925;48.356;10.864;2022-12-29T00:06:32;4.60;;;2.70;;
32469;SDS011;18925;48.356;10.864;2022-12-29T00:07:03;6.65;;;3.13;;
32469;SDS011;18925;48.356;10.864;2022-12-29T00:07:35;4.55;;;2.63;;
32469;SDS011;18925;48.356;10.864;2022-12-29T00:08:05;4.82;;;2.75;;
32469;SDS011;18925;48.356;10.864;2022-12-29T00:08:36;7.00;;;2.50;;
32469;SDS011;18925;48.356;10.864;2022-12-29T00:09:12;5.10;;;2.78;;
32469;SDS011;18925;48.356;10.864;2022-12-29T00:09:43;4.70;;;2.72;;
32469;SDS011;18925;48.356;10.864;2022-12-29T00:10:14;4.82;;;2.60;;
32469;SDS011;18925;48.356;10.864;2022-12-29T00:10:45;5.05;;;2.42;;
32469;SDS011;18925;48.356;10.864;2022-12-29T00:11:19;5.35;;;3.35;;
32469;SDS011;18925;48.356;10.864;2022-12-29T00:11:51;6.88;;;3.08;;
32469;SDS011;18925;48.356;10.864;2022-12-29T00:12:22;4.07;;;2.75;;
32469;SDS011;18925;48.356;10.864;2022-12-29T00:12:52;5.80;;;2.90;;
32469;SDS011;18925;48.356;10.864;2022-12-29T00:13:42;5.28;;;2.78;;
32469;SDS011;18925;48.356;10.864;2022-12-29T00:14:32;6.97;;;2.97;;
32469;SDS011;18925;48.356;10.864;2022-12-29T00:15:21;4.93;;;2.40;;
32469;SDS011;18925;48.356;10.864;2022-12-29T00:16:07;7.20;;;3.03;;
32469;SDS011;18925;48.356;10.864;2022-12-29T00:16:38;3.33;;;2.40;;
32469;SDS011;18925;48.356;10.864;2022-12-29T00:17:14;5.10;;;2.80;;
32469;SDS011;18925;48.356;10.864;2022-12-29T00:17:44;7.47;;;2.67;;
32469;SDS011;18925;48.356;10.864;2022-12-29T00:18:15;9.85;;;3.30;;
32469;SDS011;18925;48.356;10.864;2022-12-29T00:18:46;6.97;;;3.00;;
32469;SDS011;18925;48.356;10.864;2022-12-29T00:19:17;5.72;;;2.83;;
32469;SDS011;18925;48.356;10.864;2022-12-29T00:20:06;5.32;;;2.85;;
32469;SDS011;18925;48.356;10.864;2022-12-29T00:20:55;3.95;;;2.42;;
32469;SDS011;18925;48.356;10.864;2022-12-29T00:21:45;6.55;;;2.88;;
32469;SDS011;18925;48.356;10.864;2022-12-29T00:22:34;5.28;;;2.88;;
32469;SDS011;18925;48.356;10.864;2022-12-29T00:23:23;8.57;;;2.88;;
32469;SDS011;18925;48.356;10.864;2022-12-29T00:24:15;4.57;;;2.93;;
32469;SDS011;18925;48.356;10.864;2022-12-29T00:24:56;3.95;;;2.60;;
32469;SDS011;18925;48.356;10.864;2022-12-29T00:25:39;5.60;;;3.17;;
32469;SDS011;18925;48.356;10.864;2022-12-29T00:26:28;6.65;;;3.33;;
32469;SDS011;18925;48.356;10.864;2022-12-29T00:27:17;8.98;;;3.10;;
32469;SDS011;18925;48.356;10.864;2022-12-29T00:28:07;8.15;;;2.85;;
32469;SDS011;18925;48.356;10.864;2022-12-29T00:28:57;4.55;;;2.75;;
32469;SDS011;18925;48.356;10.864;2022-12-29T00:29:47;5.88;;;2.60;;
32469;SDS011;18925;48.356;10.864;2022-12-29T00:30:43;5.00;;;2.95;;
32469;SDS011;18925;48.356;10.864;2022-12-29T00:31:32;6.75;;;3.13;;
32469;SDS011;18925;48.356;10.864;2022-12-29T00:32:21;6.57;;;3.25;;
32469;SDS011;18925;48.356;10.864;2022-12-29T00:33:11;5.55;;;3.20;;
32469;SDS011;18925;48.356;10.864;2022-12-29T00:34:01;4.63;;;2.70;;
32469;SDS011;18925;48.356;10.864;2022-12-29T00:34:50;6.25;;;3.10;;
32469;SDS011;18925;48.356;10.864;2022-12-29T00:35:41;8.57;;;3.40;;
32469;SDS011;18925;48.356;10.864;2022-12-29T00:36:49;3.67;;;2.60;;
32469;SDS011;18925;48.356;10.864;2022-12-29T00:37:20;6.65;;;2.70;;
32469;SDS011;18925;48.356;10.864;2022-12-29T00:38:10;5.68;;;2.85;;
32469;SDS011;18925;48.356;10.864;2022-12-29T00:39:06;4.85;;;3.10;;
32469;SDS011;18925;48.356;10.864;2022-12-29T00:39:58;6.20;;;3.45;;
32469;SDS011;18925;48.356;10.864;2022-12-29T00:40:47;4.35;;;3.05;;
32469;SDS011;18925;48.356;10.864;2022-12-29T00:41:36;6.05;;;3.00;;
32469;SDS011;18925;48.356;10.864;2022-12-29T00:42:26;5.22;;;3.08;;
32469;SDS011;18925;48.356;10.864;2022-12-29T00:43:15;5.32;;;3.25;;
32469;SDS011;18925;48.356;10.864;2022-12-29T00:44:05;7.28;;;3.22;;
32469;SDS011;18925;48.356;10.864;2022-12-29T00:44:36;8.68;;;3.40;;
32469;SDS011;18925;48.356;10.864;2022-12-29T00:45:07;6.57;;;3.45;;
32469;SDS011;18925;48.356;10.864;2022-12-29T00:45:39;6.88;;;3.20;;
32469;SDS011;18925;48.356;10.864;2022-12-29T00:46:11;5.07;;;3.40;;
32469;SDS011;18925;48.356;10.864;2022-12-29T00:46:42;6.68;;;3.30;;
32469;SDS011;18925;48.356;10.864;2022-12-29T00:47:13;9.52;;;3.60;;
32469;SDS011;18925;48.356;10.864;2022-12-29T00:47:43;6.05;;;3.45;;
32469;SDS011;18925;48.356;10.864;2022-12-29T00:48:14;5.63;;;3.40;;
32469;SDS011;18925;48.356;10.864;2022-12-29T00:48:44;6.28;;;3.10;;
32469;SDS011;18925;48.356;10.864;2022-12-29T00:49:33;8.07;;;3.83;;
32469;SDS011;18925;48.356;10.864;2022-12-29T00:50:04;5.50;;;2.90;;
32469;SDS011;18925;48.356;10.864;2022-12-29T00:50:35;6.40;;;3.55;;
32469;SDS011;18925;48.356;10.864;2022-12-29T00:51:06;7.40;;;3.70;;
32469;SDS011;18925;48.356;10.864;2022-12-29T00:51:37;6.75;;;3.28;;
32469;SDS011;18925;48.356;10.864;2022-12-29T00:52:09;5.65;;;2.97;;
32469;SDS011;18925;48.356;10.864;2022-12-29T00:52:41;6.60;;;3.58;;
32469;SDS011;18925;48.356;10.864;2022-12-29T00:53:12;5.90;;;3.50;;
32469;SDS011;18925;48.356;10.864;2022-12-29T00:53:42;7.72;;;3.65;;
32469;SDS011;18925;48.356;10.864;2022-12-29T00:54:13;5.35;;;3.08;;
32469;SDS011;18925;48.356;10.864;2022-12-29T00:54:45;8.50;;;2.85;;
32469;SDS011;18925;48.356;10.864;2022-12-29T00:55:15;4.95;;;3.15;;
32469;SDS011;18925;48.356;10.864;2022-12-29T00:55:46;5.57;;;3.40;;
32469;SDS011;18925;48.356;10.864;2022-12-29T00:56:17;5.78;;;3.28;;
32469;SDS011;18925;48.356;10.864;2022-12-29T00:56:48;5.68;;;3.45;;
32469;SDS011;18925;48.356;10.864;2022-12-29T00:57:19;7.25;;;3.25;;
32469;SDS011;18925;48.356;10.864;2022-12-29T00:57:49;5.65;;;3.20;;
32469;SDS011;18925;48.356;10.864;2022-12-29T00:58:20;5.47;;;3.70;;
32469;SDS011;18925;48.356;10.864;2022-12-29T00:58:51;4.32;;;2.80;;
32469;SDS011;18925;48.356;10.864;2022-12-29T00:59:21;6.30;;;3.33;;
32469;SDS011;18925;48.356;10.864;2022-12-29T00:59:54;7.63;;;3.42;;
32469;SDS011;18925;48.356;10.864;2022-12-29T01:00:24;4.85;;;2.97;;
32469;SDS011;18925;48.356;10.864;2022-12-29T01:01:07;11.02;;;3.40;;
32469;SDS011;18925;48.356;10.864;2022-12-29T01:01:39;7.13;;;3.33;;
32469;SDS011;18925;48.356;10.864;2022-12-29T01:02:09;4.63;;;2.92;;
32469;SDS011;18925;48.356;10.864;2022-12-29T01:02:40;5.22;;;3.20;;
32469;SDS011;18925;48.356;10.864;2022-12-29T01:03:11;4.57;;;3.08;;
32469;SDS011;18925;48.356;10.864;2022-12-29T01:03:41;4.65;;;2.92;;
32469;SDS011;18925;48.356;10.864;2022-12-29T01:04:12;5.72;;;3.38;;
32469;SDS011;18925;48.356;10.864;2022-12-29T01:04:43;4.25;;;3.30;;
32469;SDS011;18925;48.356;10.864;2022-12-29T01:05:14;5.63;;;3.33;;
32469;SDS011;18925;48.356;10.864;2022-12-29T01:05:44;7.20;;;3.35;;
32469;SDS011;18925;48.356;10.864;2022-12-29T01:06:15;5.82;;;3.45;;
32469;SDS011;18925;48.356;10.864;2022-12-29T01:06:46;5.68;;;3.30;;
32469;SDS011;18925;48.356;10.864;2022-12-29T01:07:16;6.95;;;3.30;;
32469;SDS011;18925;48.356;10.864;2022-12-29T01:07:47;6.68;;;3.42;;
32469;SDS011;18925;48.356;10.864;2022-12-29T01:08:18;7.35;;;3.28;;
32469;SDS011;18925;48.356;10.864;2022-12-29T01:08:48;5.93;;;2.83;;
32469;SDS011;18925;48.356;10.864;2022-12-29T01:09:41;4.40;;;3.15;;
32469;SDS011;18925;48.356;10.864;2022-12-29T01:10:30;7.07;;;3.40;;
32469;SDS011;18925;48.356;10.864;2022-12-29T01:11:02;5.68;;;3.35;;
32469;SDS011;18925;48.356;10.864;2022-12-29T01:11:40;6.40;;;3.60;;
32469;SDS011;18925;48.356;10.864;2022-12-29T01:12:11;6.22;;;3.45;;
32469;SDS011;18925;48.356;10.864;2022-12-29T01:12:42;6.97;;;3.47;;
32469;SDS011;18925;48.356;10.864;2022-12-29T01:13:14;8.02;;;3.25;;
32469;SDS011;18925;48.356;10.864;2022-12-29T01:13:45;7.32;;;3.10;;
32469;SDS011;18925;48.356;10.864;2022-12-29T01:14:16;7.78;;;3.40;;
32469;SDS011;18925;48.356;10.864;2022-12-29T01:14:47;9.20;;;3.63;;
32469;SDS011;18925;48.356;10.864;2022-12-29T01:15:17;8.32;;;3.38;;
32469;SDS011;18925;48.356;10.864;2022-12-29T01:15:51;6.32;;;3.88;;
32469;SDS011;18925;48.356;10.864;2022-12-29T01:16:23;5.68;;;3.55;;
32469;SDS011;18925;48.356;10.864;2022-12-29T01:16:56;6.70;;;3.25;;
32469;SDS011;18925;48.356;10.864;2022-12-29T01:17:27;6.85;;;3.30;;
32469;SDS011;18925;48.356;10.864;2022-12-29T01:17:58;5.43;;;3.55;;
32469;SDS011;18925;48.356;10.864;2022-12-29T01:18:28;6.15;;;2.95;;
32469;SDS011;18925;48.356;10.864;2022-12-29T01:18:59;7.03;;;3.33;;
32469;SDS011;18925;48.356;10.864;2022-12-29T01:19:30;8.25;;;3.38;;
32469;SDS011;18925;48.356;10.864;2022-12-29T01:20:01;5.43;;;3.53;;
32469;SDS011;18925;48.356;10.864;2022-12-29T01:20:32;5.93;;;3.50;;
32469;SDS011;18925;48.356;10.864;2022-12-29T01:21:04;5.82;;;3.15;;
32469;SDS011;18925;48.356;10.864;2022-12-29T01:21:36;6.43;;;3.65;;
32469;SDS011;18925;48.356;10.864;2022-12-29T01:22:06;5.03;;;3.50;;
32469;SDS011;18925;48.356;10.864;2022-12-29T01:22:37;6.80;;;3.78;;
32469;SDS011;18925;48.356;10.864;2022-12-29T01:23:08;8.30;;;4.40;;
32469;SDS011;18925;48.356;10.864;2022-12-29T01:23:38;6.10;;;3.83;;
32469;SDS011;18925;48.356;10.864;2022-12-29T01:24:09;6.97;;;3.85;;
32469;SDS011;18925;48.356;10.864;2022-12-29T01:24:40;6.20;;;3.70;;
32469;SDS011;18925;48.356;10.864;2022-12-29T01:25:10;6.63;;;3.50;;
32469;SDS011;18925;48.356;10.864;2022-12-29T01:25:41;5.40;;;3.47;;
32469;SDS011;18925;48.356;10.864;2022-12-29T01:26:12;5.93;;;3.78;;
32469;SDS011;18925;48.356;10.864;2022-12-29T01:26:44;6.10;;;3.50;;
32469;SDS011;18925;48.356;10.864;2022-12-29T01:27:16;6.30;;;3.95;;
32469;SDS011;18925;48.356;10.864;2022-12-29T01:27:46;5.60;;;3.13;;
32469;SDS011;18925;48.356;10.864;2022-12-29T01:28:17;10.80;;;4.03;;
32469;SDS011;18925;48.356;10.864;2022-12-29T01:28:47;7.15;;;3.53;;
32469;SDS011;18925;48.356;10.864;2022-12-29T01:29:18;5.68;;;3.13;;
32469;SDS011;18925;48.356;10.864;2022-12-29T01:29:49;7.35;;;3.33;;
32469;SDS011;18925;48.356;10.864;2022-12-29T01:30:19;7.60;;;3.70;;
32469;SDS011;18925;48.356;10.864;2022-12-29T01:30:50;7.28;;;3.22;;
32469;SDS011;18925;48.356;10.864;2022-12-29T01:31:20;6.22;;;3.33;;
32469;SDS011;18925;48.356;10.864;2022-12-29T01:31:51;7.57;;;3.25;;
32469;SDS011;18925;48.356;10.864;2022-12-29T01:32:22;5.35;;;3.00;;
32469;SDS011;18925;48.356;10.864;2022-12-29T01:32:53;4.53;;;2.85;;
32469;SDS011;18925;48.356;10.864;2022-12-29T01:33:24;6.40;;;2.72;;
32469;SDS011;18925;48.356;10.864;2022-12-29T01:33:54;5.13;;;3.13;;
32469;SDS011;18925;48.356;10.864;2022-12-29T01:34:25;6.15;;;2.90;;
32469;SDS011;18925;48.356;10.864;2022-12-29T01:34:55;6.25;;;3.05;;
32469;SDS011;18925;48.356;10.864;2022-12-29T01:35:26;5.38;;;3.00;;
32469;SDS011;18925;48.356;10.864;2022-12-29T01:36:00;4.97;;;2.65;;
32469;SDS011;18925;48.356;10.864;2022-12-29T01:36:31;7.22;;;3.22;;
32469;SDS011;18925;48.356;10.864;2022-12-29T01:37:03;6.30;;;2.90;;
32469;SDS011;18925;48.356;10.864;2022-12-29T01:37:33;4.85;;;2.70;;
32469;SDS011;18925;48.356;10.864;2022-12-29T01:38:04;5.60;;;2.92;;
32469;SDS011;18925;48.356;10.864;2022-12-29T01:38:35;5.47;;;2.90;;
32469;SDS011;18925;48.356;10.864;2022-12-29T01:39:06;7.43;;;2.92;;
32469;SDS011;18925;48.356;10.864;2022-12-29T01:39:37;6.00;;;2.50;;
32469;SDS011;18925;48.356;10.864;2022-12-29T01:40:08;5.20;;;2.08;;
32469;SDS011;18925;48.356;10.864;2022-12-29T01:40:47;5.60;;;2.50;;
32469;SDS011;18925;48.356;10.864;2022-12-29T01:41:17;5.00;;;2.40;;
32469;SDS011;18925;48.356;10.864;2022-12-29T01:41:48;3.58;;;2.25;;
32469;SDS011;18925;48.356;10.864;2022-12-29T01:42:21;7.05;;;2.45;;
32469;SDS011;18925;48.356;10.864;2022-12-29T01:42:54;9.00;;;2.50;;
32469;SDS011;18925;48.356;10.864;2022-12-29T01:45:19;5.32;;;2.40;;
32469;SDS011;18925;48.356;10.864;2022-12-29T01:45:51;3.67;;;2.00;;
32469;SDS011;18925;48.356;10.864;2022-12-29T01:47:05;3.63;;;2.58;;
32469;SDS011;18925;48.356;10.864;2022-12-29T01:47:44;3.78;;;2.30;;
32469;SDS011;18925;48.356;10.864;2022-12-29T01:48:19;3.72;;;1.95;;
32469;SDS011;18925;48.356;10.864;2022-12-29T01:48:51;3.03;;;2.20;;
32469;SDS011;18925;48.356;10.864;2022-12-29T01:49:26;5.15;;;2.20;;
32469;SDS011;18925;48.356;10.864;2022-12-29T01:50:01;4.05;;;2.25;;
32469;SDS011;18925;48.356;10.864;2022-12-29T01:50:59;4.53;;;2.30;;
32469;SDS011;18925;48.356;10.864;2022-12-29T01:51:30;4.03;;;2.33;;
32469;SDS011;18925;48.356;10.864;2022-12-29T01:52:04;8.45;;;2.38;;
32469;SDS011;18925;48.356;10.864;2022-12-29T01:52:38;2.95;;;2.20;;
32469;SDS011;18925;48.356;10.864;2022-12-29T01:53:24;3.47;;;2.30;;
32469;SDS011;18925;48.356;10.864;2022-12-29T01:53:58;3.97;;;1.92;;
32469;SDS011;18925;48.356;10.864;2022-12-29T01:54:37;2.97;;;2.30;;
32469;SDS011;18925;48.356;10.864;2022-12-29T01:55:18;8.32;;;2.55;;
32469;SDS011;18925;48.356;10.864;2022-12-29T01:55:51;2.90;;;1.83;;
32469;SDS011;18925;48.356;10.864;2022-12-29T01:56:25;4.40;;;2.42;;
32469;SDS011;18925;48.356;10.864;2022-12-29T01:56:59;8.18;;;2.38;;
32469;SDS011;18925;48.356;10.864;2022-12-29T01:57:33;5.53;;;2.45;;
32469;SDS011;18925;48.356;10.864;2022-12-29T01:58:06;3.47;;;2.17;;
32469;SDS011;18925;48.356;10.864;2022-12-29T01:58:39;5.15;;;2.63;;
32469;SDS011;18925;48.356;10.864;2022-12-29T01:59:15;4.60;;;2.28;;
32469;SDS011;18925;48.356;10.864;2022-12-29T01:59:51;2.95;;;2.00;;
32469;SDS011;18925;48.356;10.864;2022-12-29T02:00:26;4.80;;;2.40;;
32469;SDS011;18925;48.356;10.864;2022-12-29T02:00:57;5.85;;;2.33;;
32469;SDS011;18925;48.356;10.864;2022-12-29T02:01:27;6.00;;;2.40;;
32469;SDS011;18925;48.356;10.864;2022-12-29T02:01:58;5.30;;;2.40;;
32469;SDS011;18925;48.356;10.864;2022-12-29T02:02:30;6.72;;;2.05;;
32469;SDS011;18925;48.356;10.864;2022-12-29T02:03:01;3.60;;;2.20;;
32469;SDS011;18925;48.356;10.864;2022-12-29T02:03:34;3.20;;;1.92;;
32469;SDS011;18925;48.356;10.864;2022-12-29T02:04:06;3.40;;;2.25;;
32469;SDS011;18925;48.356;10.864;2022-12-29T02:04:39;3.85;;;2.13;;
32469;SDS011;18925;48.356;10.864;2022-12-29T02:05:28;2.40;;;1.60;;
32469;SDS011;18925;48.356;10.864;2022-12-29T02:06:10;3.13;;;2.13;;
32469;SDS011;18925;48.356;10.864;2022-12-29T02:06:48;3.70;;;2.00;;
32469;SDS011;18925;48.356;10.864;2022-12-29T02:07:25;4.18;;;1.85;;
32469;SDS011;18925;48.356;10.864;2022-12-29T02:07:57;4.82;;;2.08;;
32469;SDS011;18925;48.356;10.864;2022-12-29T02:08:29;5.13;;;2.03;;
32469;SDS011;18925;48.356;10.864;2022-12-29T02:09:00;3.85;;;2.20;;
32469;SDS011;18925;48.356;10.864;2022-12-29T02:09:31;5.53;;;1.90;;
32469;SDS011;18925;48.356;10.864;2022-12-29T02:10:02;4.95;;;2.10;;
32469;SDS011;18925;48.356;10.864;2022-12-29T02:10:33;6.05;;;2.20;;
32469;SDS011;18925;48.356;10.864;2022-12-29T02:11:05;5.35;;;2.60;;
32469;SDS011;18925;48.356;10.864;2022-12-29T02:11:37;3.20;;;2.22;;
32469;SDS011;18925;48.356;10.864;2022-12-29T02:12:09;4.25;;;1.95;;
32469;SDS011;18925;48.356;10.864;2022-12-29T02:12:40;6.75;;;2.53;;
32469;SDS011;18925;48.356;10.864;2022-12-29T02:13:10;4.13;;;2.08;;
32469;SDS011;18925;48.356;10.864;2022-12-29T02:13:41;5.63;;;2.20;;
32469;SDS011;18925;48.356;10.864;2022-12-29T02:14:12;5.45;;;2.55;;
32469;SDS011;18925;48.356;10.864;2022-12-29T02:14:43;3.70;;;1.95;;
32469;SDS011;18925;48.356;10.864;2022-12-29T02:15:15;2.75;;;1.90;;
32469;SDS011;18925;48.356;10.864;2022-12-29T02:17:03;4.22;;;2.30;;
32469;SDS011;18925;48.356;10.864;2022-12-29T02:17:53;6.97;;;2.50;;
32469;SDS011;18925;48.356;10.864;2022-12-29T02:18:46;4.70;;;2.75;;
32469;SDS011;18925;48.356;10.864;2022-12-29T02:19:39;5.28;;;2.85;;
32469;SDS011;18925;48.356;10.864;2022-12-29T02:20:35;5.35;;;2.60;;
32469;SDS011;18925;48.356;10.864;2022-12-29T02:21:22;5.05;;;2.63;;
32469;SDS011;18925;48.356;10.864;2022-12-29T02:24:56;5.00;;;2.60;;
32469;SDS011;18925;48.356;10.864;2022-12-29T02:26:49;8.90;;;2.33;;
32469;SDS011;18925;48.356;10.864;2022-12-29T02:27:52;2.70;;;1.95;;
32469;SDS011;18925;48.356;10.864;2022-12-29T02:29:38;3.53;;;1.95;;
32469;SDS011;18925;48.356;10.864;2022-12-29T02:31:59;4.45;;;1.88;;
32469;SDS011;18925;48.356;10.864;2022-12-29T02:35:20;2.22;;;1.65;;
32469;SDS011;18925;48.356;10.864;2022-12-29T02:36:15;2.25;;;1.23;;
32469;SDS011;18925;48.356;10.864;2022-12-29T02:37:00;3.25;;;2.00;;
32469;SDS011;18925;48.356;10.864;2022-12-29T02:40:17;5.15;;;2.00;;
32469;SDS011;18925;48.356;10.864;2022-12-29T02:43:42;2.25;;;1.80;;
32469;SDS011;18925;48.356;10.864;2022-12-29T02:44:24;4.10;;;1.58;;
32469;SDS011;18925;48.356;10.864;2022-12-29T02:45:12;6.72;;;1.88;;
32469;SDS011;18925;48.356;10.864;2022-12-29T02:46:04;4.50;;;1.77;;
32469;SDS011;18925;48.356;10.864;2022-12-29T02:46:52;2.17;;;1.58;;
32469;SDS011;18925;48.356;10.864;2022-12-29T02:48:10;2.70;;;1.60;;
32469;SDS011;18925;48.356;10.864;2022-12-29T02:48:29;2.42;;;1.52;;
32469;SDS011;18925;48.356;10.864;2022-12-29T02:49:36;2.55;;;1.67;;
32469;SDS011;18925;48.356;10.864;2022-12-29T02:50:25;2.75;;;1.77;;
32469;SDS011;18925;48.356;10.864;2022-12-29T02:51:25;4.53;;;1.73;;
32469;SDS011;18925;48.356;10.864;2022-12-29T02:52:01;4.05;;;1.60;;
32469;SDS011;18925;48.356;10.864;2022-12-29T02:52:48;1.63;;;1.20;;
32469;SDS011;18925;48.356;10.864;2022-12-29T02:53:21;1.88;;;1.33;;
32469;SDS011;18925;48.356;10.864;2022-12-29T02:54:16;1.58;;;1.25;;
32469;SDS011;18925;48.356;10.864;2022-12-29T02:55:06;2.40;;;1.40;;
32469;SDS011;18925;48.356;10.864;2022-12-29T02:55:37;2.38;;;1.42;;
32469;SDS011;18925;48.356;10.864;2022-12-29T02:56:08;2.83;;;1.60;;
32469;SDS011;18925;48.356;10.864;2022-12-29T02:56:38;2.97;;;1.70;;
32469;SDS011;18925;48.356;10.864;2022-12-29T02:57:13;2.30;;;1.70;;
32469;SDS011;18925;48.356;10.864;2022-12-29T02:58:06;2.92;;;1.60;;
32469;SDS011;18925;48.356;10.864;2022-12-29T02:58:46;3.58;;;1.35;;
32469;SDS011;18925;48.356;10.864;2022-12-29T02:59:17;2.55;;;1.50;;
32469;SDS011;18925;48.356;10.864;2022-12-29T03:00:30;1.73;;;1.38;;
32469;SDS011;18925;48.356;10.864;2022-12-29T03:04:22;2.42;;;1.23;;
32469;SDS011;18925;48.356;10.864;2022-12-29T03:05:11;4.30;;;1.52;;
32469;SDS011;18925;48.356;10.864;2022-12-29T03:06:06;1.75;;;1.42;;
32469;SDS011;18925;48.356;10.864;2022-12-29T03:07:30;5.72;;;1.67;;
32469;SDS011;18925;48.356;10.864;2022-12-29T03:08:34;2.08;;;1.40;;
32469;SDS011;18925;48.356;10.864;2022-12-29T03:11:13;2.22;;;1.48;;
32469;SDS011;18925;48.356;10.864;2022-12-29T03:15:53;3.17;;;1.52;;
32469;SDS011;18925;48.356;10.864;2022-12-29T03:16:35;4.18;;;1.65;;
32469;SDS011;18925;48.356;10.864;2022-12-29T03:18:45;2.40;;;1.50;;
32469;SDS011;18925;48.356;10.864;2022-12-29T03:19:10;2.20;;;1.20;;
32469;SDS011;18925;48.356;10.864;2022-12-29T03:19:52;2.47;;;1.60;;
32469;SDS011;18925;48.356;10.864;2022-12-29T03:20:36;2.35;;;1.33;;
32469;SDS011;18925;48.356;10.864;2022-12-29T03:22:24;2.13;;;1.65;;
32469;SDS011;18925;48.356;10.864;2022-12-29T03:22:58;3.40;;;1.58;;
32469;SDS011;18925;48.356;10.864;2022-12-29T03:23:31;4.80;;;1.30;;
32469;SDS011;18925;48.356;10.864;2022-12-29T03:24:05;2.50;;;1.58;;
32469;SDS011;18925;48.356;10.864;2022-12-29T03:24:37;3.03;;;1.40;;
32469;SDS011;18925;48.356;10.864;2022-12-29T03:25:53;2.60;;;1.38;;
32469;SDS011;18925;48.356;10.864;2022-12-29T03:26:08;4.72;;;1.60;;
32469;SDS011;18925;48.356;10.864;2022-12-29T03:26:41;3.67;;;1.45;;
32469;SDS011;18925;48.356;10.864;2022-12-29T03:27:14;2.28;;;1.23;;
32469;SDS011;18925;48.356;10.864;2022-12-29T03:27:56;2.03;;;1.40;;
32469;SDS011;18925;48.356;10.864;2022-12-29T03:28:32;3.67;;;1.70;;
32469;SDS011;18925;48.356;10.864;2022-12-29T03:29:08;3.08;;;1.63;;
32469;SDS011;18925;48.356;10.864;2022-12-29T03:29:41;5.07;;;1.30;;
32469;SDS011;18925;48.356;10.864;2022-12-29T03:30:16;3.28;;;1.40;;
32469;SDS011;18925;48.356;10.864;2022-12-29T03:30:47;2.83;;;1.60;;
32469;SDS011;18925;48.356;10.864;2022-12-29T03:31:18;2.65;;;1.50;;
32469;SDS011;18925;48.356;10.864;2022-12-29T03:31:51;4.30;;;1.73;;
32469;SDS011;18925;48.356;10.864;2022-12-29T03:32:25;2.10;;;1.48;;
32469;SDS011;18925;48.356;10.864;2022-12-29T03:33:01;2.88;;;1.42;;
32469;SDS011;18925;48.356;10.864;2022-12-29T03:33:34;3.20;;;1.33;;
32469;SDS011;18925;48.356;10.864;2022-12-29T03:34:07;3.28;;;1.42;;
32469;SDS011;18925;48.356;10.864;2022-12-29T03:34:39;2.58;;;1.48;;
32469;SDS011;18925;48.356;10.864;2022-12-29T03:35:11;4.22;;;1.60;;
32469;SDS011;18925;48.356;10.864;2022-12-29T03:35:44;3.40;;;1.83;;
32469;SDS011;18925;48.356;10.864;2022-12-29T03:36:20;3.40;;;1.48;;
32469;SDS011;18925;48.356;10.864;2022-12-29T03:36:59;3.00;;;1.30;;
32469;SDS011;18925;48.356;10.864;2022-12-29T03:37:43;5.95;;;1.45;;
32469;SDS011;18925;48.356;10.864;2022-12-29T03:38:37;6.35;;;1.55;;
32469;SDS011;18925;48.356;10.864;2022-12-29T03:39:10;2.78;;;1.40;;
32469;SDS011;18925;48.356;10.864;2022-12-29T03:39:43;1.63;;;1.40;;
32469;SDS011;18925;48.356;10.864;2022-12-29T03:40:14;4.70;;;1.40;;
32469;SDS011;18925;48.356;10.864;2022-12-29T03:40:47;3.05;;;1.27;;
32469;SDS011;18925;48.356;10.864;2022-12-29T03:41:22;2.47;;;1.58;;
32469;SDS011;18925;48.356;10.864;2022-12-29T03:42:06;3.53;;;1.60;;
32469;SDS011;18925;48.356;10.864;2022-12-29T03:42:41;2.03;;;1.25;;
32469;SDS011;18925;48.356;10.864;2022-12-29T03:43:13;2.25;;;1.50;;
32469;SDS011;18925;48.356;10.864;2022-12-29T03:43:45;5.32;;;1.60;;
32469;SDS011;18925;48.356;10.864;2022-12-29T03:44:16;3.78;;;1.58;;
32469;SDS011;18925;48.356;10.864;2022-12-29T03:44:46;2.25;;;1.30;;
32469;SDS011;18925;48.356;10.864;2022-12-29T03:45:17;3.10;;;1.60;;
32469;SDS011;18925;48.356;10.864;2022-12-29T03:45:49;2.13;;;1.33;;
32469;SDS011;18925;48.356;10.864;2022-12-29T03:46:19;2.40;;;1.50;;
32469;SDS011;18925;48.356;10.864;2022-12-29T03:46:50;2.28;;;1.35;;
32469;SDS011;18925;48.356;10.864;2022-12-29T03:47:21;7.38;;;1.63;;
32469;SDS011;18925;48.356;10.864;2022-12-29T03:47:52;2.72;;;1.55;;
32469;SDS011;18925;48.356;10.864;2022-12-29T03:48:23;2.13;;;1.50;;
32469;SDS011;18925;48.356;10.864;2022-12-29T03:48:54;3.97;;;1.50;;
32469;SDS011;18925;48.356;10.864;2022-12-29T03:49:24;4.72;;;1.40;;
32469;SDS011;18925;48.356;10.864;2022-12-29T03:49:55;2.33;;;1.48;;
32469;SDS011;18925;48.356;10.864;2022-12-29T03:50:26;2.50;;;1.45;;
32469;SDS011;18925;48.356;10.864;2022-12-29T03:50:56;2.47;;;1.67;;
32469;SDS011;18925;48.356;10.864;2022-12-29T03:51:27;2.50;;;1.52;;
32469;SDS011;18925;48.356;10.864;2022-12-29T03:51:57;4.53;;;1.63;;
32469;SDS011;18925;48.356;10.864;2022-12-29T03:52:28;3.95;;;1.42;;
32469;SDS011;18925;48.356;10.864;2022-12-29T03:52:59;2.83;;;1.75;;
32469;SDS011;18925;48.356;10.864;2022-12-29T03:53:29;4.80;;;1.45;;
32469;SDS011;18925;48.356;10.864;2022-12-29T03:54:00;3.63;;;1.50;;
32469;SDS011;18925;48.356;10.864;2022-12-29T03:54:31;3.90;;;1.65;;
32469;SDS011;18925;48.356;10.864;2022-12-29T03:55:02;2.88;;;1.40;;
32469;SDS011;18925;48.356;10.864;2022-12-29T03:55:33;2.38;;;1.23;;
32469;SDS011;18925;48.356;10.864;2022-12-29T03:56:04;3.13;;;1.42;;
32469;SDS011;18925;48.356;10.864;2022-12-29T03:56:34;1.67;;;1.38;;
32469;SDS011;18925;48.356;10.864;2022-12-29T03:57:05;3.65;;;1.48;;
32469;SDS011;18925;48.356;10.864;2022-12-29T03:57:35;2.97;;;1.52;;
32469;SDS011;18925;48.356;10.864;2022-12-29T03:58:06;3.10;;;1.75;;
32469;SDS011;18925;48.356;10.864;2022-12-29T03:58:37;3.28;;;1.75;;
32469;SDS011;18925;48.356;10.864;2022-12-29T03:59:07;2.17;;;1.30;;
32469;SDS011;18925;48.356;10.864;2022-12-29T03:59:38;3.30;;;1.50;;
32469;SDS011;18925;48.356;10.864;2022-12-29T04:00:09;3.47;;;1.70;;
32469;SDS011;18925;48.356;10.864;2022-12-29T04:00:40;3.80;;;1.30;;
32469;SDS011;18925;48.356;10.864;2022-12-29T04:01:11;3.45;;;1.48;;
32469;SDS011;18925;48.356;10.864;2022-12-29T04:01:42;2.85;;;1.30;;
32469;SDS011;18925;48.356;10.864;2022-12-29T04:02:12;2.25;;;1.27;;
32469;SDS011;18925;48.356;10.864;2022-12-29T04:02:43;4.95;;;1.73;;
32469;SDS011;18925;48.356;10.864;2022-12-29T04:03:14;3.67;;;1.60;;
32469;SDS011;18925;48.356;10.864;2022-12-29T04:03:44;3.08;;;1.77;;
32469;SDS011;18925;48.356;10.864;2022-12-29T04:04:15;5.88;;;1.60;;
32469;SDS011;18925;48.356;10.864;2022-12-29T04:04:45;2.63;;;1.50;;